sensor_id;sensor_type;location;lat;lon;timestamp;pressure;altitude;pressure_sealevel;temperature;humidity
77871;BME280;67067;46.850;7.578;2023-03-01T00:00:39;95577.91;;;-1.31;45.19
77871;BME280;67067;46.850;7.578;2023-03-01T00:01:40;95583.56;;;-1.19;44.82
77871;BME280;67067;46.850;7.578;2023-03-01T00:02:41;95584.22;;;-1.17;44.98
77871;BME280;67067;46.850;7.578;2023-03-01T00:03:42;95577.44;;;-1.27;44.93
77871;BME280;67067;46.850;7.578;2023-03-01T00:04:45;95585.38;;;-1.20;44.89
77871;BME280;67067;46.850;7.578;2023-03-01T00:05:46;95574.47;;;-1.15;44.81
77871;BME280;67067;46.850;7.578;2023-03-01T00:06:47;95574.31;;;-1.22;44.82
77871;BME280;67067;46.850;7.578;2023-03-01T00:07:47;95579.00;;;-1.17;44.69
77871;BME280;67067;46.850;7.578;2023-03-01T00:08:49;95574.66;;;-1.17;44.57
77871;BME280;67067;46.850;7.578;2023-03-01T00:09:49;95579.50;;;-1.22;44.78
77871;BME280;67067;46.850;7.578;2023-03-01T00:12:03;95573.38;;;-1.29;45.12
77871;BME280;67067;46.850;7.578;2023-03-01T00:13:04;95583.75;;;-1.29;44.98
77871;BME280;67067;46.850;7.578;2023-03-01T00:14:05;95575.03;;;-1.36;45.15
77871;BME280;67067;46.850;7.578;2023-03-01T00:15:07;95578.78;;;-1.39;45.25
77871;BME280;67067;46.850;7.578;2023-03-01T00:16:10;95571.13;;;-1.41;45.23
77871;BME280;67067;46.850;7.578;2023-03-01T00:17:11;95573.03;;;-1.26;45.06
77871;BME280;67067;46.850;7.578;2023-03-01T00:18:12;95572.22;;;-1.27;45.12
77871;BME280;67067;46.850;7.578;2023-03-01T00:19:15;95573.09;;;-1.43;45.30
77871;BME280;67067;46.850;7.578;2023-03-01T00:20:18;95569.81;;;-1.36;45.25
77871;BME280;67067;46.850;7.578;2023-03-01T00:21:20;95571.25;;;-1.26;45.19
77871;BME280;67067;46.850;7.578;2023-03-01T00:22:22;95568.81;;;-1.27;45.06
77871;BME280;67067;46.850;7.578;2023-03-01T00:23:23;95567.88;;;-1.34;45.33
77871;BME280;67067;46.850;7.578;2023-03-01T00:24:24;95568.81;;;-1.27;45.14
77871;BME280;67067;46.850;7.578;2023-03-01T00:25:24;95565.53;;;-1.21;45.07
77871;BME280;67067;46.850;7.578;2023-03-01T00:26:26;95565.22;;;-1.18;44.89
77871;BME280;67067;46.850;7.578;2023-03-01T00:27:26;95568.13;;;-1.13;44.93
77871;BME280;67067;46.850;7.578;2023-03-01T00:28:27;95562.94;;;-1.13;44.71
77871;BME280;67067;46.850;7.578;2023-03-01T00:29:27;95567.50;;;-1.15;44.95
77871;BME280;67067;46.850;7.578;2023-03-01T00:30:29;95564.88;;;-1.15;45.02
77871;BME280;67067;46.850;7.578;2023-03-01T00:31:31;95568.47;;;-1.16;45.05
77871;BME280;67067;46.850;7.578;2023-03-01T00:32:33;95571.41;;;-1.19;44.93
77871;BME280;67067;46.850;7.578;2023-03-01T00:33:33;95563.91;;;-1.22;44.91
77871;BME280;67067;46.850;7.578;2023-03-01T00:34:34;95572.19;;;-1.18;44.83
77871;BME280;67067;46.850;7.578;2023-03-01T00:35:34;95571.06;;;-1.24;45.04
77871;BME280;67067;46.850;7.578;2023-03-01T00:36:36;95569.00;;;-1.29;45.17
77871;BME280;67067;46.850;7.578;2023-03-01T00:37:37;95574.66;;;-1.25;45.05
77871;BME280;67067;46.850;7.578;2023-03-01T00:38:43;95569.81;;;-1.36;45.35
77871;BME280;67067;46.850;7.578;2023-03-01T00:39:44;95564.66;;;-1.45;45.32
77871;BME280;67067;46.850;7.578;2023-03-01T00:40:44;95570.13;;;-1.31;45.20
77871;BME280;67067;46.850;7.578;2023-03-01T00:41:45;95573.66;;;-1.24;44.97
77871;BME280;67067;46.850;7.578;2023-03-01T00:42:50;95564.25;;;-1.25;45.04
77871;BME280;67067;46.850;7.578;2023-03-01T00:43:53;95567.03;;;-1.27;45.04
77871;BME280;67067;46.850;7.578;2023-03-01T00:44:54;95564.47;;;-1.35;45.33
77871;BME280;67067;46.850;7.578;2023-03-01T00:45:55;95563.47;;;-1.26;45.11
77871;BME280;67067;46.850;7.578;2023-03-01T00:46:56;95562.63;;;-1.26;45.05
77871;BME280;67067;46.850;7.578;2023-03-01T00:47:57;95561.81;;;-1.18;45.07
77871;BME280;67067;46.850;7.578;2023-03-01T00:48:57;95564.25;;;-1.17;45.04
77871;BME280;67067;46.850;7.578;2023-03-01T00:49:58;95555.13;;;-1.13;45.08
77871;BME280;67067;46.850;7.578;2023-03-01T00:51:07;95558.69;;;-1.05;45.12
77871;BME280;67067;46.850;7.578;2023-03-01T00:52:08;95556.38;;;-1.00;44.98
77871;BME280;67067;46.850;7.578;2023-03-01T00:53:09;95564.00;;;-0.99;44.80
77871;BME280;67067;46.850;7.578;2023-03-01T00:54:11;95562.03;;;-0.97;44.68
77871;BME280;67067;46.850;7.578;2023-03-01T00:55:15;95555.22;;;-0.98;44.69
77871;BME280;67067;46.850;7.578;2023-03-01T00:56:18;95563.34;;;-1.01;44.81
77871;BME280;67067;46.850;7.578;2023-03-01T00:57:21;95560.06;;;-0.94;44.72
77871;BME280;67067;46.850;7.578;2023-03-01T00:58:22;95555.84;;;-0.96;44.65
77871;BME280;67067;46.850;7.578;2023-03-01T00:59:22;95556.97;;;-0.90;44.63
77871;BME280;67067;46.850;7.578;2023-03-01T01:00:23;95556.78;;;-0.88;44.58
77871;BME280;67067;46.850;7.578;2023-03-01T01:01:27;95550.94;;;-0.90;44.53
77871;BME280;67067;46.850;7.578;2023-03-01T01:02:33;95556.47;;;-0.85;44.46
77871;BME280;67067;46.850;7.578;2023-03-01T01:03:34;95549.81;;;-0.88;44.46
77871;BME280;67067;46.850;7.578;2023-03-01T01:04:35;95548.97;;;-0.88;44.47
77871;BME280;67067;46.850;7.578;2023-03-01T01:05:35;95548.47;;;-0.84;44.35
77871;BME280;67067;46.850;7.578;2023-03-01T01:06:41;95551.44;;;-0.87;44.42
77871;BME280;67067;46.850;7.578;2023-03-01T01:07:42;95552.56;;;-0.89;44.40
77871;BME280;67067;46.850;7.578;2023-03-01T01:08:43;95544.28;;;-0.85;44.04
77871;BME280;67067;46.850;7.578;2023-03-01T01:09:44;95538.47;;;-0.95;44.26
77871;BME280;67067;46.850;7.578;2023-03-01T01:10:45;95543.34;;;-0.92;44.21
77871;BME280;67067;46.850;7.578;2023-03-01T01:11:48;95541.72;;;-0.93;44.20
77871;BME280;67067;46.850;7.578;2023-03-01T01:12:51;95542.59;;;-1.09;44.40
77871;BME280;67067;46.850;7.578;2023-03-01T01:13:52;95533.16;;;-1.02;44.55
77871;BME280;67067;46.850;7.578;2023-03-01T01:14:56;95545.63;;;-0.97;44.40
77871;BME280;67067;46.850;7.578;2023-03-01T01:16:00;95540.97;;;-1.10;44.48
77871;BME280;67067;46.850;7.578;2023-03-01T01:17:04;95536.66;;;-1.18;44.64
77871;BME280;67067;46.850;7.578;2023-03-01T01:18:05;95539.06;;;-1.16;44.57
77871;BME280;67067;46.850;7.578;2023-03-01T01:19:05;95538.28;;;-1.17;44.66
77871;BME280;67067;46.850;7.578;2023-03-01T01:20:07;95538.63;;;-1.20;44.75
77871;BME280;67067;46.850;7.578;2023-03-01T01:21:10;95547.69;;;-1.16;44.53
77871;BME280;67067;46.850;7.578;2023-03-01T01:22:11;95544.94;;;-1.22;44.82
77871;BME280;67067;46.850;7.578;2023-03-01T01:23:11;95548.22;;;-1.29;44.84
77871;BME280;67067;46.850;7.578;2023-03-01T01:24:12;95550.78;;;-1.20;44.75
77871;BME280;67067;46.850;7.578;2023-03-01T01:25:13;95542.81;;;-1.19;44.72
77871;BME280;67067;46.850;7.578;2023-03-01T01:27:16;95538.63;;;-1.28;45.07
77871;BME280;67067;46.850;7.578;2023-03-01T01:28:16;95542.03;;;-1.28;44.87
77871;BME280;67067;46.850;7.578;2023-03-01T01:29:20;95541.41;;;-1.30;45.02
77871;BME280;67067;46.850;7.578;2023-03-01T01:30:20;95541.22;;;-1.20;44.98
77871;BME280;67067;46.850;7.578;2023-03-01T01:31:21;95534.34;;;-1.13;44.78
77871;BME280;67067;46.850;7.578;2023-03-01T01:32:26;95536.94;;;-1.13;44.76
77871;BME280;67067;46.850;7.578;2023-03-01T01:33:27;95520.38;;;-1.12;44.69
77871;BME280;67067;46.850;7.578;2023-03-01T01:34:27;95530.09;;;-1.05;44.64
77871;BME280;67067;46.850;7.578;2023-03-01T01:35:28;95529.13;;;-1.04;44.72
77871;BME280;67067;46.850;7.578;2023-03-01T01:36:30;95530.38;;;-1.00;44.64
77871;BME280;67067;46.850;7.578;2023-03-01T01:37:30;95530.72;;;-1.03;44.90
77871;BME280;67067;46.850;7.578;2023-03-01T01:38:34;95530.25;;;-1.07;44.74
77871;BME280;67067;46.850;7.578;2023-03-01T01:39:35;95529.94;;;-1.12;44.82
77871;BME280;67067;46.850;7.578;2023-03-01T01:40:43;95530.72;;;-1.03;44.67
77871;BME280;67067;46.850;7.578;2023-03-01T01:41:49;95527.78;;;-1.00;44.87
77871;BME280;67067;46.850;7.578;2023-03-01T01:42:52;95524.50;;;-0.94;44.55
77871;BME280;67067;46.850;7.578;2023-03-01T01:44:18;95519.94;;;-0.92;44.62
77871;BME280;67067;46.850;7.578;2023-03-01T01:45:34;95525.78;;;-0.90;44.63
77871;BME280;67067;46.850;7.578;2023-03-01T01:46:37;95518.28;;;-0.85;44.65
77871;BME280;67067;46.850;7.578;2023-03-01T01:47:39;95530.97;;;-0.90;44.74
77871;BME280;67067;46.850;7.578;2023-03-01T01:48:43;95520.88;;;-0.85;44.63
77871;BME280;67067;46.850;7.578;2023-03-01T01:49:53;95514.88;;;-0.85;44.47
77871;BME280;67067;46.850;7.578;2023-03-01T01:50:58;95520.19;;;-0.78;44.48
77871;BME280;67067;46.850;7.578;2023-03-01T01:52:13;95526.84;;;-0.76;44.32
77871;BME280;67067;46.850;7.578;2023-03-01T01:53:17;95518.50;;;-0.71;44.08
77871;BME280;67067;46.850;7.578;2023-03-01T01:54:26;95517.19;;;-0.67;44.11
77871;BME280;67067;46.850;7.578;2023-03-01T01:55:30;95511.25;;;-0.76;44.27
77871;BME280;67067;46.850;7.578;2023-03-01T01:56:31;95526.38;;;-0.79;44.29
77871;BME280;67067;46.850;7.578;2023-03-01T01:57:36;95516.78;;;-0.79;44.43
77871;BME280;67067;46.850;7.578;2023-03-01T01:58:37;95517.06;;;-0.74;44.24
77871;BME280;67067;46.850;7.578;2023-03-01T01:59:40;95522.28;;;-0.74;44.20
77871;BME280;67067;46.850;7.578;2023-03-01T02:00:44;95515.63;;;-0.76;44.16
77871;BME280;67067;46.850;7.578;2023-03-01T02:01:47;95510.91;;;-0.73;44.18
77871;BME280;67067;46.850;7.578;2023-03-01T02:02:50;95511.34;;;-0.69;44.14
77871;BME280;67067;46.850;7.578;2023-03-01T02:03:55;95505.06;;;-0.75;44.16
77871;BME280;67067;46.850;7.578;2023-03-01T02:05:06;95513.22;;;-0.78;44.21
77871;BME280;67067;46.850;7.578;2023-03-01T02:06:28;95511.47;;;-0.86;44.15
77871;BME280;67067;46.850;7.578;2023-03-01T02:07:32;95503.50;;;-0.84;44.27
77871;BME280;67067;46.850;7.578;2023-03-01T02:08:35;95509.97;;;-0.80;44.27
77871;BME280;67067;46.850;7.578;2023-03-01T02:09:38;95504.25;;;-0.75;44.16
77871;BME280;67067;46.850;7.578;2023-03-01T02:10:39;95499.69;;;-0.73;44.27
77871;BME280;67067;46.850;7.578;2023-03-01T02:11:41;95500.78;;;-0.68;43.96
77871;BME280;67067;46.850;7.578;2023-03-01T02:12:42;95500.59;;;-0.66;43.95
77871;BME280;67067;46.850;7.578;2023-03-01T02:13:43;95504.88;;;-0.73;44.00
77871;BME280;67067;46.850;7.578;2023-03-01T02:14:44;95499.50;;;-0.72;43.90
77871;BME280;67067;46.850;7.578;2023-03-01T02:15:45;95503.59;;;-0.77;43.98
77871;BME280;67067;46.850;7.578;2023-03-01T02:16:46;95500.03;;;-0.76;44.16
77871;BME280;67067;46.850;7.578;2023-03-01T02:17:46;95509.84;;;-0.87;44.48
77871;BME280;67067;46.850;7.578;2023-03-01T02:18:48;95504.69;;;-0.95;44.43
77871;BME280;67067;46.850;7.578;2023-03-01T02:21:33;95500.44;;;-0.88;44.21
77871;BME280;67067;46.850;7.578;2023-03-01T02:22:39;95499.78;;;-0.90;44.12
77871;BME280;67067;46.850;7.578;2023-03-01T02:23:40;95498.38;;;-1.01;44.37
77871;BME280;67067;46.850;7.578;2023-03-01T02:27:26;95498.22;;;-0.99;44.49
77871;BME280;67067;46.850;7.578;2023-03-01T02:28:33;95495.97;;;-1.02;44.30
77871;BME280;67067;46.850;7.578;2023-03-01T02:29:40;95506.38;;;-1.02;44.39
77871;BME280;67067;46.850;7.578;2023-03-01T02:30:48;95488.84;;;-1.08;44.55
77871;BME280;67067;46.850;7.578;2023-03-01T02:32:08;95487.25;;;-1.09;44.61
77871;BME280;67067;46.850;7.578;2023-03-01T02:33:10;95494.41;;;-1.12;44.74
77871;BME280;67067;46.850;7.578;2023-03-01T02:34:15;95487.88;;;-1.07;44.60
77871;BME280;67067;46.850;7.578;2023-03-01T02:35:17;95485.28;;;-1.07;44.59
77871;BME280;67067;46.850;7.578;2023-03-01T02:36:22;95486.06;;;-1.07;44.58
77871;BME280;67067;46.850;7.578;2023-03-01T02:37:26;95487.53;;;-1.04;44.63
77871;BME280;67067;46.850;7.578;2023-03-01T02:38:30;95484.59;;;-1.01;44.40
77871;BME280;67067;46.850;7.578;2023-03-01T02:39:36;95486.84;;;-0.98;44.55
77871;BME280;67067;46.850;7.578;2023-03-01T02:40:42;95480.19;;;-1.01;44.67
77871;BME280;67067;46.850;7.578;2023-03-01T02:41:47;95484.88;;;-0.96;44.64
77871;BME280;67067;46.850;7.578;2023-03-01T02:42:54;95484.41;;;-1.00;44.59
77871;BME280;67067;46.850;7.578;2023-03-01T02:43:56;95486.84;;;-0.98;44.65
77871;BME280;67067;46.850;7.578;2023-03-01T02:44:56;95487.78;;;-0.91;44.41
77871;BME280;67067;46.850;7.578;2023-03-01T02:45:59;95486.94;;;-0.91;44.44
77871;BME280;67067;46.850;7.578;2023-03-01T02:47:04;95488.16;;;-1.02;44.91
77871;BME280;67067;46.850;7.578;2023-03-01T02:48:06;95485.69;;;-0.96;44.73
77871;BME280;67067;46.850;7.578;2023-03-01T02:49:27;95480.72;;;-1.05;44.63
77871;BME280;67067;46.850;7.578;2023-03-01T02:51:42;95472.28;;;-1.07;45.04
77871;BME280;67067;46.850;7.578;2023-03-01T02:54:10;95472.06;;;-0.98;44.82
77871;BME280;67067;46.850;7.578;2023-03-01T02:55:17;95467.31;;;-0.94;44.61
77871;BME280;67067;46.850;7.578;2023-03-01T02:56:18;95472.00;;;-0.89;44.94
77871;BME280;67067;46.850;7.578;2023-03-01T02:57:19;95471.47;;;-0.85;44.92
77871;BME280;67067;46.850;7.578;2023-03-01T02:58:22;95464.16;;;-0.81;44.76
77871;BME280;67067;46.850;7.578;2023-03-01T02:59:24;95463.34;;;-0.82;44.74
77871;BME280;67067;46.850;7.578;2023-03-01T03:00:32;95464.59;;;-0.77;44.79
77871;BME280;67067;46.850;7.578;2023-03-01T03:01:34;95457.09;;;-0.72;44.70
77871;BME280;67067;46.850;7.578;2023-03-01T03:02:40;95466.50;;;-0.71;44.45
77871;BME280;67067;46.850;7.578;2023-03-01T03:03:52;95458.72;;;-0.71;44.31
77871;BME280;67067;46.850;7.578;2023-03-01T03:04:52;95456.94;;;-0.71;44.39
77871;BME280;67067;46.850;7.578;2023-03-01T03:05:53;95454.97;;;-0.69;44.31
77871;BME280;67067;46.850;7.578;2023-03-01T03:06:56;95449.78;;;-0.69;44.34
77871;BME280;67067;46.850;7.578;2023-03-01T03:08:01;95454.78;;;-0.67;44.22
77871;BME280;67067;46.850;7.578;2023-03-01T03:09:07;95457.22;;;-0.65;44.17
77871;BME280;67067;46.850;7.578;2023-03-01T03:10:12;95456.22;;;-0.64;44.26
77871;BME280;67067;46.850;7.578;2023-03-01T03:11:15;95448.88;;;-0.61;44.11
77871;BME280;67067;46.850;7.578;2023-03-01T03:12:16;95457.84;;;-0.63;44.28
77871;BME280;67067;46.850;7.578;2023-03-01T03:13:16;95455.53;;;-0.58;44.32
77871;BME280;67067;46.850;7.578;2023-03-01T03:14:19;95454.72;;;-0.59;44.42
77871;BME280;67067;46.850;7.578;2023-03-01T03:15:22;95452.75;;;-0.57;44.10
77871;BME280;67067;46.850;7.578;2023-03-01T03:16:23;95454.03;;;-0.53;44.33
77871;BME280;67067;46.850;7.578;2023-03-01T03:17:24;95449.81;;;-0.54;44.33
77871;BME280;67067;46.850;7.578;2023-03-01T03:18:24;95460.84;;;-0.52;44.39
77871;BME280;67067;46.850;7.578;2023-03-01T03:19:28;95459.72;;;-0.49;44.09
77871;BME280;67067;46.850;7.578;2023-03-01T03:20:29;95455.66;;;-0.52;44.09
77871;BME280;67067;46.850;7.578;2023-03-01T03:21:30;95451.75;;;-0.47;44.01
77871;BME280;67067;46.850;7.578;2023-03-01T03:22:31;95448.94;;;-0.46;44.08
77871;BME280;67067;46.850;7.578;2023-03-01T03:23:32;95454.78;;;-0.44;44.07
77871;BME280;67067;46.850;7.578;2023-03-01T03:24:32;95453.63;;;-0.41;43.91
77871;BME280;67067;46.850;7.578;2023-03-01T03:25:38;95453.28;;;-0.38;44.00
77871;BME280;67067;46.850;7.578;2023-03-01T03:26:38;95444.50;;;-0.37;44.08
77871;BME280;67067;46.850;7.578;2023-03-01T03:27:40;95445.47;;;-0.38;43.92
77871;BME280;67067;46.850;7.578;2023-03-01T03:28:42;95450.06;;;-0.40;44.12
77871;BME280;67067;46.850;7.578;2023-03-01T03:29:43;95451.66;;;-0.39;44.25
77871;BME280;67067;46.850;7.578;2023-03-01T03:30:44;95445.00;;;-0.42;44.24
77871;BME280;67067;46.850;7.578;2023-03-01T03:31:44;95443.59;;;-0.44;44.40
77871;BME280;67067;46.850;7.578;2023-03-01T03:32:46;95445.38;;;-0.45;44.38
77871;BME280;67067;46.850;7.578;2023-03-01T03:33:52;95446.53;;;-0.47;44.21
77871;BME280;67067;46.850;7.578;2023-03-01T03:34:52;95447.34;;;-0.47;44.21
77871;BME280;67067;46.850;7.578;2023-03-01T03:35:53;95446.00;;;-0.43;44.09
77871;BME280;67067;46.850;7.578;2023-03-01T03:36:54;95451.81;;;-0.41;44.15
77871;BME280;67067;46.850;7.578;2023-03-01T03:38:01;95444.66;;;-0.39;44.04
77871;BME280;67067;46.850;7.578;2023-03-01T03:39:02;95450.50;;;-0.36;43.97
77871;BME280;67067;46.850;7.578;2023-03-01T03:40:06;95451.31;;;-0.36;43.93
77871;BME280;67067;46.850;7.578;2023-03-01T03:41:15;95450.31;;;-0.35;43.89
77871;BME280;67067;46.850;7.578;2023-03-01T03:42:16;95450.97;;;-0.33;43.75
77871;BME280;67067;46.850;7.578;2023-03-01T03:43:19;95447.53;;;-0.33;43.85
77871;BME280;67067;46.850;7.578;2023-03-01T03:44:22;95441.53;;;-0.34;43.69
77871;BME280;67067;46.850;7.578;2023-03-01T03:45:23;95446.91;;;-0.35;43.62
77871;BME280;67067;46.850;7.578;2023-03-01T03:46:23;95443.94;;;-0.47;43.77
77871;BME280;67067;46.850;7.578;2023-03-01T03:47:24;95445.91;;;-0.49;43.59
77871;BME280;67067;46.850;7.578;2023-03-01T03:48:25;95443.63;;;-0.53;43.74
77871;BME280;67067;46.850;7.578;2023-03-01T03:49:26;95439.47;;;-0.62;43.76
77871;BME280;67067;46.850;7.578;2023-03-01T03:50:26;95440.16;;;-0.68;43.96
77871;BME280;67067;46.850;7.578;2023-03-01T03:51:27;95437.13;;;-0.72;44.02
77871;BME280;67067;46.850;7.578;2023-03-01T03:52:27;95435.44;;;-0.88;44.30
77871;BME280;67067;46.850;7.578;2023-03-01T03:53:28;95435.72;;;-0.83;44.24
77871;BME280;67067;46.850;7.578;2023-03-01T03:54:29;95434.75;;;-0.82;44.33
77871;BME280;67067;46.850;7.578;2023-03-01T03:55:33;95433.94;;;-0.82;44.15
77871;BME280;67067;46.850;7.578;2023-03-01T03:56:34;95433.34;;;-0.92;44.43
77871;BME280;67067;46.850;7.578;2023-03-01T03:57:40;95433.34;;;-0.92;44.66
77871;BME280;67067;46.850;7.578;2023-03-01T03:58:40;95427.66;;;-0.88;44.51
77871;BME280;67067;46.850;7.578;2023-03-01T03:59:41;95438.03;;;-0.88;44.41
77871;BME280;67067;46.850;7.578;2023-03-01T04:00:44;95430.25;;;-0.88;44.44
77871;BME280;67067;46.850;7.578;2023-03-01T04:01:44;95424.41;;;-0.90;44.43
77871;BME280;67067;46.850;7.578;2023-03-01T04:02:46;95434.19;;;-0.92;44.43
77871;BME280;67067;46.850;7.578;2023-03-01T04:03:49;95423.16;;;-0.94;44.40
77871;BME280;67067;46.850;7.578;2023-03-01T04:04:54;95425.75;;;-0.94;44.47
77871;BME280;67067;46.850;7.578;2023-03-01T04:05:57;95420.06;;;-0.98;44.60
77871;BME280;67067;46.850;7.578;2023-03-01T04:06:58;95421.69;;;-0.97;44.62
77871;BME280;67067;46.850;7.578;2023-03-01T04:07:59;95420.19;;;-0.91;44.45
77871;BME280;67067;46.850;7.578;2023-03-01T04:09:02;95418.22;;;-0.89;44.70
77871;BME280;67067;46.850;7.578;2023-03-01T04:10:11;95423.44;;;-0.89;44.70
77871;BME280;67067;46.850;7.578;2023-03-01T04:11:14;95425.97;;;-0.81;44.61
77871;BME280;67067;46.850;7.578;2023-03-01T04:12:29;95419.63;;;-1.01;45.08
77871;BME280;67067;46.850;7.578;2023-03-01T04:13:30;95424.06;;;-0.87;44.90
77871;BME280;67067;46.850;7.578;2023-03-01T04:14:30;95414.94;;;-0.83;44.83
77871;BME280;67067;46.850;7.578;2023-03-01T04:15:31;95423.91;;;-0.85;44.97
77871;BME280;67067;46.850;7.578;2023-03-01T04:16:32;95418.94;;;-0.95;45.04
77871;BME280;67067;46.850;7.578;2023-03-01T04:17:33;95419.28;;;-0.98;45.42
77871;BME280;67067;46.850;7.578;2023-03-01T04:18:36;95424.69;;;-0.85;45.14
77871;BME280;67067;46.850;7.578;2023-03-01T04:19:36;95425.63;;;-0.77;44.79
77871;BME280;67067;46.850;7.578;2023-03-01T04:20:37;95424.00;;;-0.78;44.90
77871;BME280;67067;46.850;7.578;2023-03-01T04:21:38;95425.97;;;-0.81;44.78
77871;BME280;67067;46.850;7.578;2023-03-01T04:22:41;95423.56;;;-0.82;44.63
77871;BME280;67067;46.850;7.578;2023-03-01T04:23:44;95429.38;;;-0.80;44.53
77871;BME280;67067;46.850;7.578;2023-03-01T04:24:45;95429.91;;;-0.85;44.52
77871;BME280;67067;46.850;7.578;2023-03-01T04:25:53;95425.69;;;-0.86;44.56
77871;BME280;67067;46.850;7.578;2023-03-01T04:26:56;95423.09;;;-0.86;44.62
77871;BME280;67067;46.850;7.578;2023-03-01T04:27:57;95424.97;;;-0.79;44.54
77871;BME280;67067;46.850;7.578;2023-03-01T04:28:57;95424.81;;;-0.78;44.55
77871;BME280;67067;46.850;7.578;2023-03-01T04:29:58;95426.59;;;-0.78;44.57
77871;BME280;67067;46.850;7.578;2023-03-01T04:31:06;95419.44;;;-0.76;44.45
77871;BME280;67067;46.850;7.578;2023-03-01T04:32:17;95420.25;;;-0.76;44.38
77871;BME280;67067;46.850;7.578;2023-03-01T04:33:19;95420.25;;;-0.76;44.36
77871;BME280;67067;46.850;7.578;2023-03-01T04:34:23;95415.22;;;-0.77;44.28
77871;BME280;67067;46.850;7.578;2023-03-01T04:35:23;95420.75;;;-0.81;44.19
77871;BME280;67067;46.850;7.578;2023-03-01T04:36:26;95419.69;;;-0.86;44.43
77871;BME280;67067;46.850;7.578;2023-03-01T04:37:27;95420.19;;;-0.91;44.28
77871;BME280;67067;46.850;7.578;2023-03-01T04:38:28;95422.44;;;-1.11;44.79
77871;BME280;67067;46.850;7.578;2023-03-01T04:39:28;95416.19;;;-1.25;45.12
77871;BME280;67067;46.850;7.578;2023-03-01T04:40:29;95426.22;;;-1.14;44.98
77871;BME280;67067;46.850;7.578;2023-03-01T04:41:29;95419.16;;;-1.05;44.58
77871;BME280;67067;46.850;7.578;2023-03-01T04:42:29;95420.03;;;-1.13;44.80
77871;BME280;67067;46.850;7.578;2023-03-01T04:43:30;95410.50;;;-1.20;44.75
77871;BME280;67067;46.850;7.578;2023-03-01T04:44:30;95413.25;;;-1.22;44.80
77871;BME280;67067;46.850;7.578;2023-03-01T04:45:32;95411.69;;;-1.31;44.94
77871;BME280;67067;46.850;7.578;2023-03-01T04:46:35;95414.28;;;-1.31;44.88
77871;BME280;67067;46.850;7.578;2023-03-01T04:47:36;95408.75;;;-1.28;44.83
77871;BME280;67067;46.850;7.578;2023-03-01T04:48:40;95411.41;;;-1.36;45.05
77871;BME280;67067;46.850;7.578;2023-03-01T04:49:43;95406.84;;;-1.34;45.08
77871;BME280;67067;46.850;7.578;2023-03-01T04:50:46;95413.00;;;-1.35;45.09
77871;BME280;67067;46.850;7.578;2023-03-01T04:51:46;95413.66;;;-1.33;45.05
77871;BME280;67067;46.850;7.578;2023-03-01T04:52:47;95422.41;;;-1.34;45.06
77871;BME280;67067;46.850;7.578;2023-03-01T04:53:47;95422.59;;;-1.36;45.13
77871;BME280;67067;46.850;7.578;2023-03-01T04:54:48;95422.59;;;-1.36;45.12
77871;BME280;67067;46.850;7.578;2023-03-01T04:55:48;95411.41;;;-1.36;45.02
77871;BME280;67067;46.850;7.578;2023-03-01T04:56:49;95415.22;;;-1.47;45.50
77871;BME280;67067;46.850;7.578;2023-03-01T04:57:49;95412.44;;;-1.46;45.31
77871;BME280;67067;46.850;7.578;2023-03-01T04:58:53;95415.50;;;-1.42;45.22
77871;BME280;67067;46.850;7.578;2023-03-01T04:59:53;95414.72;;;-1.51;45.38
77871;BME280;67067;46.850;7.578;2023-03-01T05:00:54;95419.63;;;-1.56;45.59
77871;BME280;67067;46.850;7.578;2023-03-01T05:01:56;95419.13;;;-1.51;45.55
77871;BME280;67067;46.850;7.578;2023-03-01T05:02:59;95414.03;;;-1.76;46.08
77871;BME280;67067;46.850;7.578;2023-03-01T05:04:00;95417.88;;;-1.64;45.86
77871;BME280;67067;46.850;7.578;2023-03-01T05:05:03;95419.19;;;-1.68;45.93
77871;BME280;67067;46.850;7.578;2023-03-01T05:06:03;95417.31;;;-1.82;46.42
77871;BME280;67067;46.850;7.578;2023-03-01T05:07:04;95417.13;;;-1.73;46.12
77871;BME280;67067;46.850;7.578;2023-03-01T05:08:07;95421.38;;;-1.80;46.13
77871;BME280;67067;46.850;7.578;2023-03-01T05:09:08;95408.53;;;-1.81;46.13
77871;BME280;67067;46.850;7.578;2023-03-01T05:10:09;95419.06;;;-1.75;46.24
77871;BME280;67067;46.850;7.578;2023-03-01T05:11:10;95418.38;;;-1.69;46.06
77871;BME280;67067;46.850;7.578;2023-03-01T05:12:12;95427.75;;;-1.59;45.67
77871;BME280;67067;46.850;7.578;2023-03-01T05:13:13;95418.75;;;-1.80;46.17
77871;BME280;67067;46.850;7.578;2023-03-01T05:14:15;95415.84;;;-1.77;46.06
77871;BME280;67067;46.850;7.578;2023-03-01T05:15:16;95420.84;;;-1.75;46.05
77871;BME280;67067;46.850;7.578;2023-03-01T05:16:16;95415.59;;;-2.07;46.90
77871;BME280;67067;46.850;7.578;2023-03-01T05:17:17;95424.44;;;-1.85;46.52
77871;BME280;67067;46.850;7.578;2023-03-01T05:18:18;95418.91;;;-1.81;46.53
77871;BME280;67067;46.850;7.578;2023-03-01T05:19:18;95419.41;;;-1.78;46.36
77871;BME280;67067;46.850;7.578;2023-03-01T05:20:22;95419.25;;;-1.85;46.45
77871;BME280;67067;46.850;7.578;2023-03-01T05:21:23;95418.16;;;-1.99;46.83
77871;BME280;67067;46.850;7.578;2023-03-01T05:22:23;95412.94;;;-1.82;46.42
77871;BME280;67067;46.850;7.578;2023-03-01T05:23:24;95403.34;;;-1.81;46.26
77871;BME280;67067;46.850;7.578;2023-03-01T05:24:25;95409.69;;;-1.84;46.24
77871;BME280;67067;46.850;7.578;2023-03-01T05:25:27;95410.50;;;-1.84;46.33
77871;BME280;67067;46.850;7.578;2023-03-01T05:26:33;95409.47;;;-1.74;46.17
77871;BME280;67067;46.850;7.578;2023-03-01T05:27:36;95404.81;;;-1.79;46.31
77871;BME280;67067;46.850;7.578;2023-03-01T05:28:36;95406.28;;;-1.85;46.39
77871;BME280;67067;46.850;7.578;2023-03-01T05:29:38;95412.25;;;-1.76;46.39
77871;BME280;67067;46.850;7.578;2023-03-01T05:32:55;95400.59;;;-1.80;46.29
77871;BME280;67067;46.850;7.578;2023-03-01T05:33:55;95403.50;;;-1.75;46.49
77871;BME280;67067;46.850;7.578;2023-03-01T05:34:56;95401.13;;;-1.93;46.69
77871;BME280;67067;46.850;7.578;2023-03-01T05:36:00;95395.75;;;-1.83;46.57
77871;BME280;67067;46.850;7.578;2023-03-01T05:37:00;95396.69;;;-1.76;46.40
77871;BME280;67067;46.850;7.578;2023-03-01T05:38:01;95397.09;;;-1.64;46.34
77871;BME280;67067;46.850;7.578;2023-03-01T05:39:02;95397.25;;;-1.57;46.31
77871;BME280;67067;46.850;7.578;2023-03-01T05:40:02;95399.91;;;-1.74;46.39
77871;BME280;67067;46.850;7.578;2023-03-01T05:41:04;95396.09;;;-1.86;46.48
77871;BME280;67067;46.850;7.578;2023-03-01T05:42:05;95387.97;;;-1.83;46.64
77871;BME280;67067;46.850;7.578;2023-03-01T05:43:06;95390.81;;;-1.70;46.29